createdAt,value
2018-07-24T00:02:12.206Z,22.26
2018-07-24T00:04:45.420Z,22.22
2018-07-24T00:07:18.383Z,22.19
2018-07-24T00:09:51.410Z,22.12
2018-07-24T00:12:22.931Z,22.05
2018-07-24T00:14:55.980Z,21.89
2018-07-24T00:17:30.412Z,21.85
2018-07-24T00:20:01.872Z,21.87
2018-07-24T00:22:31.872Z,21.76
2018-07-24T00:25:04.750Z,21.52
2018-07-24T00:27:38.286Z,21.49
2018-07-24T00:30:08.274Z,21.46
2018-07-24T00:32:38.338Z,21.57
2018-07-24T00:35:11.363Z,21.72
2018-07-24T00:37:45.742Z,21.71
2018-07-24T00:40:18.644Z,21.60
2018-07-24T00:42:50.740Z,21.65
2018-07-24T00:45:22.105Z,21.84
2018-07-24T00:47:54.756Z,21.79
2018-07-24T00:50:25.428Z,21.70
2018-07-24T00:52:58.430Z,21.70
2018-07-24T00:55:29.929Z,21.67
2018-07-24T00:58:00.751Z,21.54
2018-07-24T01:00:32.164Z,21.56
2018-07-24T01:03:03.241Z,21.53
2018-07-24T01:05:33.145Z,21.53
2018-07-24T01:08:04.858Z,21.50
2018-07-24T01:10:38.201Z,21.37
2018-07-24T01:13:12.688Z,21.29
2018-07-24T01:15:44.498Z,21.23
2018-07-24T01:18:17.562Z,21.27
2018-07-24T01:20:52.143Z,21.29
2018-07-24T01:23:22.236Z,21.22
2018-07-24T01:25:55.470Z,21.24
2018-07-24T01:28:25.602Z,21.14
2018-07-24T01:30:54.787Z,21.04
2018-07-24T01:33:29.664Z,20.99
2018-07-24T01:36:01.386Z,21.04
2018-07-24T01:38:32.828Z,21.05
2018-07-24T01:41:05.648Z,20.97
2018-07-24T01:43:37.683Z,20.96
2018-07-24T01:46:16.948Z,20.96
2018-07-24T01:48:48.009Z,20.83
2018-07-24T01:51:18.646Z,20.85
2018-07-24T01:53:51.830Z,20.71
2018-07-24T01:56:23.351Z,20.69
2018-07-24T01:58:56.341Z,20.57
2018-07-24T02:01:30.786Z,20.52
2018-07-24T02:04:03.735Z,20.47
2018-07-24T02:06:35.184Z,20.57
2018-07-24T02:09:10.485Z,20.62
2018-07-24T02:11:41.953Z,20.78
2018-07-24T02:14:13.294Z,20.86
2018-07-24T02:16:47.017Z,20.99
2018-07-24T02:19:18.674Z,21.14
2018-07-24T02:21:52.273Z,21.24
2018-07-24T02:24:23.755Z,21.34
2018-07-24T02:26:56.686Z,21.17
2018-07-24T02:29:28.841Z,21.16
2018-07-24T02:32:00.813Z,21.08
2018-07-24T02:34:32.130Z,20.98
2018-07-24T02:37:04.964Z,20.98
2018-07-24T02:39:37.885Z,20.90
2018-07-24T02:42:09.463Z,20.83
2018-07-24T02:44:42.654Z,20.78
2018-07-24T02:47:14.115Z,20.70
2018-07-24T02:49:44.284Z,20.67
2018-07-24T02:52:14.463Z,20.60
2018-07-24T02:54:47.638Z,20.52
2018-07-24T02:57:22.131Z,20.45
2018-07-24T02:59:55.327Z,20.38
2018-07-24T03:02:28.200Z,20.24
2018-07-24T03:05:01.049Z,20.16
2018-07-24T03:07:32.528Z,20.15
2018-07-24T03:10:03.930Z,20.12
2018-07-24T03:12:37.316Z,20.14
2018-07-24T03:15:07.339Z,20.13
2018-07-24T03:17:40.186Z,20.15
2018-07-24T03:20:13.131Z,20.16
2018-07-24T03:22:43.137Z,20.12
2018-07-24T03:25:14.689Z,20.15
2018-07-24T03:27:44.713Z,20.09
2018-07-24T03:30:17.088Z,20.10
2018-07-24T03:32:50.176Z,20.08
2018-07-24T03:35:20.398Z,20.06
2018-07-24T03:37:51.982Z,20.09
2018-07-24T03:40:26.684Z,20.10
2018-07-24T03:42:59.748Z,20.01
2018-07-24T03:45:34.362Z,20.05
2018-07-24T03:48:05.849Z,19.99
2018-07-24T03:50:35.861Z,20.03
2018-07-24T03:53:10.279Z,20.05
2018-07-24T03:55:44.989Z,20.05
2018-07-24T03:58:17.929Z,20.08
2018-07-24T04:00:51.044Z,20.19
2018-07-24T04:03:24.005Z,20.29
2018-07-24T04:05:57.019Z,20.47
2018-07-24T04:08:31.444Z,20.59
2018-07-24T04:11:04.404Z,20.74
2018-07-24T04:13:34.499Z,20.82
2018-07-24T04:16:08.515Z,21.01
2018-07-24T04:18:49.239Z,21.23
2018-07-24T04:21:22.751Z,21.36
2018-07-24T04:23:55.862Z,21.60
2018-07-24T04:26:27.242Z,21.84
2018-07-24T04:28:57.772Z,22.05
2018-07-24T04:31:30.753Z,22.28
2018-07-24T04:34:02.901Z,22.56
2018-07-24T04:36:35.954Z,22.77
2018-07-24T04:39:08.414Z,23.13
2018-07-24T04:41:40.110Z,23.36
2018-07-24T04:44:12.986Z,23.64
2018-07-24T04:46:44.423Z,23.76
2018-07-24T04:49:15.859Z,24.01
2018-07-24T04:51:47.165Z,24.41
2018-07-24T04:54:18.726Z,24.63
2018-07-24T04:56:48.779Z,24.81
2018-07-24T04:59:22.026Z,25.00
2018-07-24T05:01:53.422Z,24.96
2018-07-24T05:04:25.246Z,25.41
2018-07-24T05:06:57.225Z,25.67
2018-07-24T05:09:31.658Z,25.62
2018-07-24T05:12:05.452Z,26.00
2018-07-24T05:14:38.489Z,26.28
2018-07-24T05:17:11.413Z,26.60
2018-07-24T05:19:43.017Z,26.65
2018-07-24T05:22:17.455Z,26.92
2018-07-24T05:24:49.043Z,27.16
2018-07-24T05:27:22.038Z,27.53
2018-07-24T05:29:54.918Z,27.64
2018-07-24T05:32:26.394Z,27.83
2018-07-24T05:34:59.676Z,27.67
2018-07-24T05:37:34.278Z,27.24
2018-07-24T05:40:07.424Z,26.81
2018-07-24T05:42:38.806Z,26.93
2018-07-24T05:45:10.175Z,26.64
2018-07-24T05:47:43.062Z,26.66
2018-07-24T05:50:14.389Z,26.74
2018-07-24T05:52:49.170Z,27.03
2018-07-24T05:55:21.541Z,27.17
2018-07-24T05:57:52.970Z,26.86
2018-07-24T06:00:27.461Z,26.66
2018-07-24T06:02:58.827Z,26.92
2018-07-24T06:05:32.419Z,27.15
2018-07-24T06:08:05.347Z,27.24
2018-07-24T06:10:39.915Z,27.70
2018-07-24T06:13:11.410Z,27.65
2018-07-24T06:15:43.268Z,27.57
2018-07-24T06:18:17.798Z,27.56
2018-07-24T06:20:49.371Z,27.52
2018-07-24T06:23:22.279Z,27.33
2018-07-24T06:25:53.800Z,27.59
2018-07-24T06:28:25.392Z,27.88
2018-07-24T06:30:58.452Z,28.05
2018-07-24T06:33:28.385Z,27.84
2018-07-24T06:35:59.790Z,28.23
2018-07-24T06:38:32.637Z,27.92
2018-07-24T06:41:07.051Z,28.33
2018-07-24T06:43:38.883Z,27.90
2018-07-24T06:46:11.792Z,29.26
2018-07-24T06:48:43.280Z,29.81
2018-07-24T06:51:15.336Z,30.68
2018-07-24T06:53:45.143Z,30.92
2018-07-24T06:56:17.944Z,30.92
2018-07-24T06:58:50.880Z,31.72
2018-07-24T07:01:23.906Z,31.12
2018-07-24T07:03:57.198Z,30.29
2018-07-24T07:06:28.834Z,29.56
2018-07-24T07:09:09.496Z,28.99
2018-07-24T07:11:42.905Z,29.39
2018-07-24T07:14:14.347Z,29.30
2018-07-24T07:16:48.742Z,29.02
2018-07-24T07:19:22.456Z,29.35
2018-07-24T07:21:52.393Z,29.24
2018-07-24T07:24:23.750Z,29.01
2018-07-24T07:26:58.460Z,29.87
2018-07-24T07:29:32.739Z,31.05
2018-07-24T07:32:07.130Z,30.57
2018-07-24T07:34:39.960Z,30.91
2018-07-24T07:37:12.909Z,31.10
2018-07-24T07:39:45.745Z,31.26
2018-07-24T07:42:15.639Z,32.22
2018-07-24T07:44:47.087Z,31.52
2018-07-24T07:47:18.978Z,32.67
2018-07-24T07:49:50.936Z,32.41
2018-07-24T07:52:23.758Z,33.50
2018-07-24T07:54:55.187Z,32.71
2018-07-24T07:57:26.487Z,34.04
2018-07-24T07:59:58.181Z,34.40
2018-07-24T08:02:30.080Z,34.13
2018-07-24T08:05:02.494Z,34.59
2018-07-24T08:07:33.907Z,34.42
2018-07-24T08:10:04.764Z,35.56
2018-07-24T08:12:36.901Z,34.81
2018-07-24T08:15:10.829Z,34.78
2018-07-24T08:17:42.752Z,35.04
2018-07-24T08:20:15.667Z,35.07
2018-07-24T08:22:48.588Z,34.58
2018-07-24T08:25:18.640Z,34.90
2018-07-24T08:27:50.036Z,34.76
2018-07-24T08:30:23.596Z,35.39
2018-07-24T08:32:55.040Z,35.36
2018-07-24T08:35:25.929Z,35.70
2018-07-24T08:37:59.846Z,35.07
2018-07-24T08:40:31.215Z,34.72
2018-07-24T08:43:02.599Z,35.05
2018-07-24T08:45:33.033Z,35.16
2018-07-24T08:48:03.495Z,35.04
2018-07-24T08:50:33.470Z,35.30
2018-07-24T08:53:05.069Z,35.60
2018-07-24T08:55:35.582Z,36.24
2018-07-24T08:58:06.902Z,35.19
2018-07-24T09:00:38.344Z,35.66
2018-07-24T09:03:10.230Z,35.89
2018-07-24T09:05:40.546Z,36.11
2018-07-24T09:08:13.396Z,35.77
2018-07-24T09:10:44.770Z,36.86
2018-07-24T09:13:16.640Z,37.30
2018-07-24T09:15:49.504Z,36.49
2018-07-24T09:18:23.738Z,38.10
2018-07-24T09:20:55.243Z,36.84
2018-07-24T09:23:29.432Z,36.18
2018-07-24T09:25:59.286Z,36.83
2018-07-24T09:28:32.451Z,36.85
2018-07-24T09:31:02.560Z,35.50
2018-07-24T09:33:33.941Z,35.88
2018-07-24T09:36:05.419Z,34.95
2018-07-24T09:38:35.601Z,34.56
2018-07-24T09:41:08.407Z,34.49
2018-07-24T09:43:41.902Z,34.29
2018-07-24T09:46:13.249Z,35.12
2018-07-24T09:48:45.093Z,35.25
2018-07-24T09:51:16.557Z,35.11
2018-07-24T09:53:47.972Z,35.57
2018-07-24T09:56:18.027Z,35.40
2018-07-24T09:58:51.237Z,36.74
2018-07-24T10:01:36.655Z,37.15
2018-07-24T10:04:08.375Z,36.03
2018-07-24T10:06:39.791Z,35.12
2018-07-24T10:09:13.891Z,34.54
2018-07-24T10:11:44.329Z,34.07
2018-07-24T10:14:17.260Z,33.90
2018-07-24T10:16:48.678Z,34.42
2018-07-24T10:19:21.529Z,34.79
2018-07-24T10:21:52.905Z,34.83
2018-07-24T10:24:26.132Z,35.49
2018-07-24T10:26:58.148Z,34.73
2018-07-24T10:29:27.979Z,34.68
2018-07-24T10:31:59.372Z,35.25
2018-07-24T10:34:30.705Z,35.47
2018-07-24T10:37:02.123Z,35.66
2018-07-24T10:39:33.135Z,35.70
2018-07-24T10:42:04.623Z,35.71
2018-07-24T10:44:36.705Z,35.01
2018-07-24T10:47:09.508Z,35.54
2018-07-24T10:49:41.051Z,36.36
2018-07-24T10:52:13.412Z,36.84
2018-07-24T10:54:43.380Z,37.00
2018-07-24T10:57:17.917Z,36.92
2018-07-24T10:59:49.802Z,36.52
2018-07-24T11:02:22.605Z,36.69
2018-07-24T11:04:55.489Z,36.73
2018-07-24T11:07:27.483Z,36.31
2018-07-24T11:09:59.970Z,36.40
2018-07-24T11:12:31.388Z,37.35
2018-07-24T11:15:04.520Z,37.61
2018-07-24T11:17:37.399Z,36.92
2018-07-24T11:20:09.294Z,36.79
2018-07-24T11:22:40.927Z,36.97
2018-07-24T11:25:13.555Z,37.10
2018-07-24T11:27:43.551Z,36.15
2018-07-24T11:30:16.392Z,35.88
2018-07-24T11:32:47.793Z,36.21
2018-07-24T11:35:19.209Z,35.56
2018-07-24T11:37:51.995Z,36.42
2018-07-24T11:40:21.747Z,36.28
2018-07-24T11:42:51.701Z,35.62
2018-07-24T11:45:23.016Z,36.91
2018-07-24T11:47:55.922Z,35.75
2018-07-24T11:50:25.854Z,36.88
2018-07-24T11:52:55.763Z,36.44
2018-07-24T11:55:28.073Z,36.73
2018-07-24T11:57:57.934Z,36.49
2018-07-24T12:00:29.642Z,36.49
2018-07-24T12:03:01.078Z,36.14
2018-07-24T12:05:34.470Z,35.70
2018-07-24T12:08:07.327Z,36.04
2018-07-24T12:10:41.565Z,35.90
2018-07-24T12:13:14.757Z,34.72
2018-07-24T12:15:48.966Z,34.87
2018-07-24T12:18:21.310Z,34.86
2018-07-24T12:20:51.799Z,34.95
2018-07-24T12:23:21.464Z,34.80
2018-07-24T12:25:53.751Z,35.35
2018-07-24T12:28:27.976Z,35.52
2018-07-24T12:31:01.025Z,35.52
2018-07-24T12:33:32.491Z,35.66
2018-07-24T12:36:04.141Z,36.36
2018-07-24T12:38:37.086Z,36.42
2018-07-24T12:41:08.488Z,36.09
2018-07-24T12:43:39.884Z,35.69
2018-07-24T12:46:11.329Z,35.80
2018-07-24T12:48:44.724Z,36.28
2018-07-24T12:51:17.610Z,36.87
2018-07-24T12:53:51.203Z,36.02
2018-07-24T12:56:22.570Z,35.86
2018-07-24T12:58:53.931Z,36.05
2018-07-24T13:01:26.890Z,36.11
2018-07-24T13:03:59.884Z,36.66
2018-07-24T13:06:34.119Z,35.85
2018-07-24T13:09:05.965Z,36.08
2018-07-24T13:11:37.480Z,36.16
2018-07-24T13:14:07.576Z,35.29
2018-07-24T13:16:40.617Z,35.26
2018-07-24T13:19:10.573Z,35.71
2018-07-24T13:21:42.514Z,35.72
2018-07-24T13:24:13.074Z,36.41
2018-07-24T13:26:44.611Z,36.02
2018-07-24T13:29:16.034Z,34.89
2018-07-24T13:31:49.101Z,35.52
2018-07-24T13:34:21.271Z,35.72
2018-07-24T13:36:53.149Z,35.38
2018-07-24T13:39:24.682Z,35.45
2018-07-24T13:41:56.068Z,35.78
2018-07-24T13:44:27.976Z,36.12
2018-07-24T13:46:59.287Z,36.41
2018-07-24T13:49:30.648Z,36.32
2018-07-24T13:52:03.643Z,35.84
2018-07-24T13:54:35.484Z,36.05
2018-07-24T13:57:08.446Z,36.00
2018-07-24T13:59:41.644Z,35.92
2018-07-24T14:02:14.446Z,35.70
2018-07-24T14:04:45.085Z,35.94
2018-07-24T14:07:17.254Z,35.66
2018-07-24T14:09:48.932Z,35.56
2018-07-24T14:12:23.299Z,35.66
2018-07-24T14:14:54.252Z,35.71
2018-07-24T14:17:27.363Z,35.79
2018-07-24T14:19:58.728Z,36.20
2018-07-24T14:22:30.996Z,36.09
2018-07-24T14:25:05.337Z,36.01
2018-07-24T14:27:38.259Z,35.86
2018-07-24T14:30:11.358Z,35.63
2018-07-24T14:32:42.775Z,35.03
2018-07-24T14:35:15.676Z,35.32
2018-07-24T14:37:47.240Z,35.00
2018-07-24T14:40:17.675Z,34.99
2018-07-24T14:42:49.613Z,35.28
2018-07-24T14:45:21.627Z,35.23
2018-07-24T14:47:51.563Z,35.64
2018-07-24T14:50:22.875Z,35.69
2018-07-24T14:52:54.351Z,34.65
2018-07-24T14:55:25.026Z,35.04
2018-07-24T14:57:55.505Z,35.11
2018-07-24T15:00:25.690Z,34.72
2018-07-24T15:02:56.595Z,35.19
2018-07-24T15:05:29.352Z,35.42
2018-07-24T15:08:03.641Z,35.45
2018-07-24T15:10:36.573Z,34.91
2018-07-24T15:13:08.485Z,34.83
2018-07-24T15:15:39.832Z,34.55
2018-07-24T15:18:11.230Z,33.83
2018-07-24T15:20:43.278Z,33.65
2018-07-24T15:23:14.784Z,33.49
2018-07-24T15:25:47.758Z,33.45
2018-07-24T15:28:20.724Z,33.36
2018-07-24T15:30:53.755Z,33.14
2018-07-24T15:33:25.172Z,32.82
2018-07-24T15:35:56.589Z,32.48
2018-07-24T15:38:29.459Z,32.39
2018-07-24T15:41:01.551Z,32.31
2018-07-24T15:43:33.714Z,32.06
2018-07-24T15:46:05.068Z,32.29
2018-07-24T15:48:38.004Z,32.37
2018-07-24T15:51:09.790Z,32.23
2018-07-24T15:53:41.016Z,32.29
2018-07-24T15:56:12.436Z,32.31
2018-07-24T15:58:44.947Z,32.14
2018-07-24T16:01:15.207Z,32.12
2018-07-24T16:03:48.240Z,32.06
2018-07-24T16:06:19.623Z,31.94
2018-07-24T16:08:54.158Z,32.17
2018-07-24T16:11:27.022Z,32.20
2018-07-24T16:13:58.498Z,32.24
2018-07-24T16:16:29.937Z,32.25
2018-07-24T16:19:04.291Z,32.16
2018-07-24T16:21:36.445Z,32.28
2018-07-24T16:24:09.282Z,32.13
2018-07-24T16:26:40.713Z,32.18
2018-07-24T16:29:12.020Z,32.43
2018-07-24T16:31:43.363Z,32.64
2018-07-24T16:34:13.850Z,32.53
2018-07-24T16:36:45.740Z,32.73
2018-07-24T16:39:17.133Z,32.65
2018-07-24T16:41:47.906Z,32.50
2018-07-24T16:44:21.568Z,32.63
2018-07-24T16:46:51.666Z,32.65
2018-07-24T16:49:21.767Z,32.44
2018-07-24T16:54:32.777Z,32.22
2018-07-24T16:57:05.913Z,31.49
2018-07-24T16:59:37.630Z,31.28
2018-07-24T17:02:09.990Z,31.20
2018-07-24T17:04:43.451Z,31.05
2018-07-24T17:07:18.090Z,30.81
2018-07-24T17:09:49.613Z,30.67
2018-07-24T17:12:20.238Z,30.46
2018-07-24T17:14:53.308Z,30.61
2018-07-24T17:17:28.010Z,30.54
2018-07-24T17:19:59.810Z,30.59
2018-07-24T17:22:31.529Z,30.49
2018-07-24T17:25:06.251Z,30.58
2018-07-24T17:27:39.340Z,30.55
2018-07-24T17:30:11.008Z,30.45
2018-07-24T17:32:43.173Z,30.64
2018-07-24T17:35:14.920Z,30.26
2018-07-24T17:37:47.059Z,30.41
2018-07-24T17:40:18.836Z,30.28
2018-07-24T17:42:50.856Z,30.26
2018-07-24T17:45:23.224Z,30.02
2018-07-24T17:47:56.272Z,29.97
2018-07-24T17:50:26.799Z,30.05
2018-07-24T17:52:59.605Z,30.07
2018-07-24T17:55:30.996Z,30.08
2018-07-24T17:58:04.144Z,30.14
2018-07-24T18:00:35.647Z,29.92
2018-07-24T18:03:07.338Z,29.82
2018-07-24T18:05:38.816Z,29.76
2018-07-24T18:08:10.262Z,29.81
2018-07-24T18:10:39.335Z,29.78
2018-07-24T18:13:09.239Z,29.62
2018-07-24T18:15:41.500Z,29.72
2018-07-24T18:18:11.578Z,29.49
2018-07-24T18:20:43.552Z,29.45
2018-07-24T18:23:14.741Z,29.47
2018-07-24T18:25:47.655Z,29.47
2018-07-24T18:28:20.641Z,29.22
2018-07-24T18:30:55.526Z,29.10
2018-07-24T18:33:28.388Z,29.03
2018-07-24T18:35:59.797Z,29.06
2018-07-24T18:38:31.116Z,29.02
2018-07-24T18:41:01.725Z,28.83
2018-07-24T18:43:32.561Z,28.75
2018-07-24T18:46:04.231Z,28.82
2018-07-24T18:48:36.233Z,28.75
2018-07-24T18:51:06.181Z,28.76
2018-07-24T18:53:38.645Z,28.72
2018-07-24T18:56:10.014Z,28.35
2018-07-24T18:58:39.950Z,28.37
2018-07-24T19:01:12.790Z,28.21
2018-07-24T19:03:45.205Z,28.15
2018-07-24T19:06:17.098Z,27.92
2018-07-24T19:08:50.042Z,27.72
2018-07-24T19:11:21.786Z,27.68
2018-07-24T19:13:51.014Z,27.58
2018-07-24T19:16:22.462Z,27.41
2018-07-24T19:18:54.121Z,27.36
2018-07-24T19:21:27.057Z,27.40
2018-07-24T19:23:58.504Z,27.33
2018-07-24T19:26:30.383Z,27.33
2018-07-24T19:29:03.469Z,27.12
2018-07-24T19:31:35.494Z,27.06
2018-07-24T19:34:07.354Z,27.03
2018-07-24T19:36:40.784Z,26.95
2018-07-24T19:39:15.786Z,27.08
2018-07-24T19:41:48.805Z,26.85
2018-07-24T19:44:20.539Z,26.93
2018-07-24T19:46:53.937Z,26.81
2018-07-24T19:49:25.574Z,26.82
2018-07-24T19:51:57.893Z,26.76
2018-07-24T19:54:27.987Z,26.80
2018-07-24T19:56:59.663Z,26.65
2018-07-24T19:59:32.650Z,26.59
2018-07-24T20:02:04.138Z,26.39
2018-07-24T20:04:34.945Z,26.40
2018-07-24T20:07:07.568Z,26.34
2018-07-24T20:09:39.765Z,26.38
2018-07-24T20:12:11.421Z,26.29
2018-07-24T20:14:44.291Z,26.17
2018-07-24T20:17:15.979Z,26.17
2018-07-24T20:19:46.545Z,26.12
2018-07-24T20:22:18.070Z,26.09
2018-07-24T20:24:50.757Z,26.02
2018-07-24T20:27:21.952Z,25.91
2018-07-24T20:29:53.492Z,25.80
2018-07-24T20:32:26.364Z,25.97
2018-07-24T20:34:58.066Z,25.88
2018-07-24T20:37:32.927Z,25.71
2018-07-24T20:40:04.969Z,25.82
2018-07-24T20:42:36.425Z,25.69
2018-07-24T20:45:07.401Z,25.68
2018-07-24T20:47:40.209Z,25.61
2018-07-24T20:50:12.554Z,25.47
2018-07-24T20:52:43.292Z,25.29
2018-07-24T20:55:16.242Z,25.05
2018-07-24T20:57:48.159Z,25.17
2018-07-24T21:00:18.415Z,25.11
2018-07-24T21:02:51.626Z,25.10
2018-07-24T21:05:23.242Z,25.13
2018-07-24T21:07:53.447Z,24.96
2018-07-24T21:10:42.393Z,24.80
2018-07-24T21:13:15.270Z,24.77
2018-07-24T21:15:47.836Z,24.74
2018-07-24T21:18:17.831Z,24.74
2018-07-24T21:20:53.238Z,24.74
2018-07-24T21:23:23.835Z,24.67
2018-07-24T21:25:55.702Z,24.64
2018-07-24T21:28:29.103Z,24.60
2018-07-24T21:31:00.605Z,24.50
2018-07-24T21:33:30.560Z,24.57
2018-07-24T21:36:01.082Z,24.65
2018-07-24T21:38:32.455Z,24.64
2018-07-24T21:41:04.779Z,24.63
2018-07-24T21:43:37.726Z,24.55
2018-07-24T21:46:09.295Z,24.42
2018-07-24T21:48:40.774Z,24.42
2018-07-24T21:51:12.253Z,24.38
2018-07-24T21:53:43.760Z,24.47
2018-07-24T21:56:15.152Z,24.39
2018-07-24T21:58:49.465Z,24.51
2018-07-24T22:01:21.472Z,24.38
2018-07-24T22:03:54.852Z,24.26
2018-07-24T22:06:26.231Z,24.20
2018-07-24T22:08:59.193Z,24.23
2018-07-24T22:11:30.544Z,24.16
2018-07-24T22:14:02.282Z,24.19
2018-07-24T22:16:34.017Z,24.14
2018-07-24T22:19:03.932Z,24.22
2018-07-24T22:21:33.890Z,24.14
2018-07-24T22:24:07.462Z,24.03
2018-07-24T22:26:40.533Z,23.99
2018-07-24T22:29:13.319Z,24.02
2018-07-24T22:31:46.390Z,24.02
2018-07-24T22:34:18.922Z,23.84
2018-07-24T22:36:51.346Z,23.81
2018-07-24T22:39:24.110Z,23.92
2018-07-24T22:41:57.135Z,23.73
2018-07-24T22:44:26.981Z,23.65
2018-07-24T22:46:59.949Z,23.61
2018-07-24T22:49:30.132Z,23.60
2018-07-24T22:52:01.572Z,23.60
2018-07-24T22:54:34.478Z,23.55
2018-07-24T22:57:07.603Z,23.62
2018-07-24T22:59:38.088Z,23.60
2018-07-24T23:02:10.511Z,23.71
2018-07-24T23:04:42.046Z,23.83
2018-07-24T23:07:13.532Z,23.83
2018-07-24T23:09:45.188Z,23.88
2018-07-24T23:12:17.053Z,23.90
2018-07-24T23:14:49.021Z,23.97
2018-07-24T23:17:19.261Z,23.90
2018-07-24T23:19:51.410Z,23.81
2018-07-24T23:22:21.855Z,23.74
2018-07-24T23:24:54.842Z,23.68
2018-07-24T23:27:27.852Z,23.70
2018-07-24T23:29:59.512Z,23.90
2018-07-24T23:32:33.752Z,23.86
2018-07-24T23:35:03.710Z,23.91
2018-07-24T23:37:33.744Z,23.90
2018-07-24T23:40:04.113Z,23.62
2018-07-24T23:42:33.301Z,23.76
2018-07-24T23:45:02.999Z,23.71
2018-07-24T23:47:32.879Z,23.66
2018-07-24T23:50:05.715Z,23.59
2018-07-24T23:52:37.091Z,23.65
2018-07-24T23:55:08.026Z,23.60
2018-07-24T23:57:39.436Z,23.53
